首页
METAR-TAF:

METAR-TAF

机场 :

Greenbrier Valley Airport

Lewisburg, 西維吉尼亞州, 美国

纬度: 37-52N, 经度: 080-24W, 海拔: 702米

当前天气观测

该预报发布于33分钟前的01:55 UTC
风速5节,风向西北
温度 10°C
湿度 71%
气压 1018 hPa
能見度: 16.1公里
散云层高于5000英尺

METAR: KLWB 170155Z AUTO 32005KT 10SM SCT050 10/05 A3005 RMK AO2 T01010045

时间: 22:28 (02:28 UTC)

预报

该预报发布于3小时和8分钟前的23:20 UTC
预报有效从17日的 00点(UTC)到 17日的 24点(UTC)
风速9节,风向西北
能見度: 10公里
散云层高于3500英尺
从 17日的 1500点(UTC)
风速10节,风向西转西北,有时为17节阵风
能見度: 10公里
天空无云
从 17日的 2200点(UTC)
风速9节,风向西转西北
能見度: 10公里
天空无云

TAF: KLWB 162320Z 1700/1724 31009KT P6SM SCT035 FM171500 29010G17KT P6SM SKC FM172200 29009KT P6SM SKC

超过4000个机场的气象观测和天气预报(METAR&TAF报告)。

可查询的气象台以黄色和红色小点在地图上表示。

将鼠标移到小点上方,可查看气象台名称。

然后点击查看天气观测和预报。

如需切换地图:点击带黑十字的绿色按钮放大地图;点击带横线的绿色按钮缩小地图;或者点击绿色箭头查看邻近地区的地图。


METAR-TAF: